Airport ID:CYTF
Update Time (UTC):28/10/2020 19:19
Wind Speed (Knots):4
Wind Direction (Magnetic):160
Temperature (°C):0.7
Dew Point (°C):-1.9
Humidity (%):83
Altimeter (inHg):29.82
Density Altitude (Feet):\\\\
Visibility (Miles):6
Clouds (Hundreds of feet):BKN024 OVC028
Present Weather:
METAR:METAR CYTF 281900Z AUTO 14004KT 110V170 2 1/2SM -UP BKN025 M00/M02 A2983

The data displayed is for advisory purposes only and is not to be used for flight planning or operations.

This page is not automatically refreshed. Reload the page to see current data.